createdAt,value
2018-04-23T00:00:08.638Z,45.80
2018-04-23T00:02:36.889Z,45.70
2018-04-23T00:05:05.143Z,45.90
2018-04-23T00:07:33.376Z,45.90
2018-04-23T00:10:01.614Z,46.10
2018-04-23T00:12:29.862Z,46.30
2018-04-23T00:14:58.879Z,46.50
2018-04-23T00:17:27.114Z,46.50
2018-04-23T00:19:55.364Z,46.80
2018-04-23T00:22:23.605Z,46.80
2018-04-23T00:24:52.621Z,47.00
2018-04-23T00:27:20.863Z,46.90
2018-04-23T00:29:49.888Z,47.10
2018-04-23T00:32:18.121Z,47.00
2018-04-23T00:34:46.442Z,47.00
2018-04-23T00:37:14.677Z,46.80
2018-04-23T00:39:42.917Z,46.90
2018-04-23T00:42:11.185Z,47.00
2018-04-23T00:44:39.417Z,47.10
2018-04-23T00:47:08.417Z,47.20
2018-04-23T00:49:36.670Z,47.20
2018-04-23T00:52:04.910Z,47.30
2018-04-23T00:54:33.158Z,47.30
2018-04-23T00:57:01.402Z,47.50
2018-04-23T00:59:30.710Z,47.30
2018-04-23T01:01:59.710Z,47.50
2018-04-23T01:04:27.998Z,47.50
2018-04-23T01:06:56.244Z,47.30
2018-04-23T01:09:25.237Z,47.30
2018-04-23T01:11:54.257Z,47.40
2018-04-23T01:14:22.505Z,47.40
2018-04-23T01:16:51.501Z,47.50
2018-04-23T01:19:20.518Z,47.60
2018-04-23T01:21:48.749Z,47.60
2018-04-23T01:24:17.006Z,47.70
2018-04-23T01:26:45.251Z,47.50
2018-04-23T01:29:13.507Z,47.70
2018-04-23T01:31:42.801Z,48.00
2018-04-23T01:34:11.806Z,47.90
2018-04-23T01:36:40.080Z,47.90
2018-04-23T01:39:09.383Z,48.00
2018-04-23T01:41:38.374Z,48.40
2018-04-23T01:44:06.617Z,48.30
2018-04-23T01:46:34.976Z,48.20
2018-04-23T01:49:03.211Z,48.30
2018-04-23T01:51:31.448Z,48.60
2018-04-23T01:53:59.696Z,48.50
2018-04-23T01:56:27.946Z,48.70
2018-04-23T01:58:56.215Z,48.60
2018-04-23T02:01:24.457Z,48.40
2018-04-23T02:03:53.089Z,48.80
2018-04-23T02:06:21.321Z,48.90
2018-04-23T02:08:49.574Z,48.90
2018-04-23T02:11:17.814Z,49.00
2018-04-23T02:13:46.058Z,49.10
2018-04-23T02:16:15.084Z,49.30
2018-04-23T02:18:43.314Z,49.30
2018-04-23T02:21:11.545Z,49.20
2018-04-23T02:23:39.795Z,49.30
2018-04-23T02:26:08.042Z,49.40
2018-04-23T02:28:37.045Z,49.30
2018-04-23T02:31:05.278Z,49.20
2018-04-23T02:33:33.535Z,49.70
2018-04-23T02:36:01.797Z,49.30
2018-04-23T02:38:30.031Z,49.30
2018-04-23T02:40:58.271Z,49.30
2018-04-23T02:43:26.518Z,49.20
2018-04-23T02:45:54.750Z,49.20
2018-04-23T02:48:23.366Z,49.40
2018-04-23T02:50:51.605Z,49.50
2018-04-23T02:53:19.842Z,49.60
2018-04-23T02:55:48.086Z,49.60
2018-04-23T02:58:17.090Z,49.80
2018-04-23T03:00:45.366Z,49.70
2018-04-23T03:03:13.943Z,50.00
2018-04-23T03:05:42.194Z,49.90
2018-04-23T03:08:10.490Z,50.00
2018-04-23T03:10:39.497Z,50.60
2018-04-23T03:13:07.747Z,50.60
2018-04-23T03:15:36.761Z,50.50
2018-04-23T03:18:05.001Z,50.50
2018-04-23T03:20:33.241Z,50.70
2018-04-23T03:23:01.495Z,50.50
2018-04-23T03:25:29.726Z,50.60
2018-04-23T03:27:58.732Z,50.70
2018-04-23T03:30:27.742Z,50.70
2018-04-23T03:32:55.974Z,50.60
2018-04-23T03:35:24.226Z,50.60
2018-04-23T03:37:52.481Z,50.60
2018-04-23T03:40:20.762Z,50.70
2018-04-23T03:42:48.957Z,50.80
2018-04-23T03:45:17.194Z,50.90
2018-04-23T03:47:45.673Z,51.00
2018-04-23T03:50:13.910Z,51.10
2018-04-23T03:52:42.146Z,51.00
2018-04-23T03:55:10.397Z,51.20
2018-04-23T03:57:39.425Z,51.30
2018-04-23T04:00:07.630Z,51.20
2018-04-23T04:02:35.878Z,51.50
2018-04-23T04:05:04.114Z,51.50
2018-04-23T04:07:33.132Z,51.50
2018-04-23T04:10:01.362Z,51.50
2018-04-23T04:12:47.470Z,51.60
2018-04-23T04:15:34.230Z,51.40
2018-04-23T04:18:37.945Z,51.40
2018-04-23T04:21:06.196Z,51.30
2018-04-23T04:23:34.417Z,51.20
2018-04-23T04:26:02.675Z,52.30
2018-04-23T04:28:30.905Z,52.20
2018-04-23T04:30:59.227Z,51.70
2018-04-23T04:33:27.458Z,51.80
2018-04-23T04:35:55.721Z,50.80
2018-04-23T04:38:24.730Z,50.80
2018-04-23T04:40:52.968Z,50.80
2018-04-23T04:43:22.916Z,50.90
2018-04-23T04:45:51.494Z,50.90
2018-04-23T04:48:19.730Z,51.00
2018-04-23T04:50:49.474Z,51.00
2018-04-23T04:53:17.757Z,51.00
2018-04-23T04:55:46.754Z,51.10
2018-04-23T04:58:15.002Z,51.10
2018-04-23T05:00:44.018Z,51.10
2018-04-23T05:03:13.291Z,51.10
2018-04-23T05:05:42.294Z,51.00
2018-04-23T05:08:11.312Z,51.20
2018-04-23T05:10:40.364Z,51.30
2018-04-23T05:13:09.363Z,51.20
2018-04-23T05:15:39.117Z,51.30
2018-04-23T05:18:07.351Z,51.30
2018-04-23T05:20:37.093Z,51.20
2018-04-23T05:23:05.358Z,51.10
2018-04-23T05:25:34.647Z,51.00
2018-04-23T05:28:05.054Z,51.10
2018-04-23T05:30:34.150Z,51.20
2018-04-23T05:33:03.154Z,51.20
2018-04-23T05:35:32.903Z,50.80
2018-04-23T05:38:01.187Z,50.80
2018-04-23T05:40:29.434Z,50.90
2018-04-23T05:42:58.444Z,50.60
2018-04-23T05:45:26.696Z,50.60
2018-04-23T05:47:55.726Z,50.80
2018-04-23T05:50:23.963Z,50.80
2018-04-23T05:52:53.215Z,50.90
2018-04-23T05:55:21.450Z,50.70
2018-04-23T05:57:49.694Z,50.50
2018-04-23T06:00:18.713Z,50.70
2018-04-23T06:02:47.725Z,50.70
2018-04-23T06:05:16.005Z,50.70
2018-04-23T06:07:44.258Z,50.30
2018-04-23T06:10:13.566Z,50.50
2018-04-23T06:12:42.561Z,50.20
2018-04-23T06:15:10.807Z,50.10
2018-04-23T06:17:39.054Z,50.00
2018-04-23T06:20:07.290Z,49.80
2018-04-23T06:22:35.538Z,49.70
2018-04-23T06:25:04.556Z,49.20
2018-04-23T06:27:32.800Z,49.00
2018-04-23T06:30:01.042Z,49.00
2018-04-23T06:32:29.274Z,48.90
2018-04-23T06:34:57.538Z,48.80
2018-04-23T06:37:26.565Z,48.30
2018-04-23T06:39:54.787Z,48.30
2018-04-23T06:42:23.029Z,47.70
2018-04-23T06:44:51.291Z,47.70
2018-04-23T06:47:19.528Z,47.80
2018-04-23T06:49:48.526Z,47.50
2018-04-23T06:52:17.630Z,47.30
2018-04-23T06:54:46.637Z,46.70
2018-04-23T06:57:14.919Z,46.60
2018-04-23T06:59:43.154Z,46.80
2018-04-23T07:02:11.390Z,46.60
2018-04-23T07:04:39.655Z,46.40
2018-04-23T07:07:07.894Z,46.60
2018-04-23T07:09:36.898Z,45.90
2018-04-23T07:12:05.183Z,45.90
2018-04-23T07:14:33.757Z,46.20
2018-04-23T07:17:02.000Z,45.70
2018-04-23T07:19:30.278Z,45.20
2018-04-23T07:21:58.514Z,44.40
2018-04-23T07:24:26.760Z,44.50
2018-04-23T07:26:54.990Z,44.10
2018-04-23T07:29:23.672Z,43.70
2018-04-23T07:31:51.859Z,43.30
2018-04-23T07:34:20.909Z,44.20
2018-04-23T07:36:49.150Z,44.20
2018-04-23T07:39:18.173Z,45.30
2018-04-23T07:41:47.070Z,45.30
2018-04-23T07:44:15.306Z,44.80
2018-04-23T07:46:44.311Z,43.80
2018-04-23T07:49:13.313Z,44.20
2018-04-23T07:51:41.887Z,43.50
2018-04-23T07:54:10.960Z,43.30
2018-04-23T07:56:39.131Z,43.20
2018-04-23T07:59:07.378Z,43.10
2018-04-23T08:01:35.627Z,43.00
2018-04-23T08:04:03.871Z,42.40
2018-04-23T08:06:32.907Z,42.40
2018-04-23T08:09:01.126Z,42.40
2018-04-23T08:11:29.359Z,42.40
2018-04-23T08:13:57.621Z,41.80
2018-04-23T08:16:26.101Z,41.80
2018-04-23T08:18:54.337Z,41.30
2018-04-23T08:21:22.574Z,40.30
2018-04-23T08:23:51.776Z,41.40
2018-04-23T08:26:20.007Z,41.10
2018-04-23T08:28:48.595Z,40.70
2018-04-23T08:31:16.823Z,40.30
2018-04-23T08:33:45.064Z,40.20
2018-04-23T08:36:13.328Z,39.10
2018-04-23T08:38:41.570Z,39.60
2018-04-23T08:41:09.801Z,39.70
2018-04-23T08:43:38.067Z,39.70
2018-04-23T08:46:06.343Z,39.20
2018-04-23T08:48:34.594Z,38.20
2018-04-23T08:51:02.881Z,38.70
2018-04-23T08:53:31.354Z,38.40
2018-04-23T08:55:59.590Z,37.80
2018-04-23T08:58:27.831Z,37.70
2018-04-23T09:00:56.180Z,37.60
2018-04-23T09:03:25.191Z,38.00
2018-04-23T09:05:53.442Z,38.00
2018-04-23T09:08:23.439Z,37.30
2018-04-23T09:10:51.666Z,37.20
2018-04-23T09:13:20.026Z,36.20
2018-04-23T09:15:48.263Z,35.90
2018-04-23T09:18:16.505Z,35.20
2018-04-23T09:20:45.045Z,36.40
2018-04-23T09:23:14.048Z,36.00
2018-04-23T09:25:42.294Z,36.00
2018-04-23T09:28:10.551Z,36.40
2018-04-23T09:30:38.782Z,35.20
2018-04-23T09:33:07.035Z,34.70
2018-04-23T09:35:36.038Z,35.80
2018-04-23T09:38:05.047Z,35.00
2018-04-23T09:40:33.285Z,34.90
2018-04-23T09:43:01.530Z,34.70
2018-04-23T09:45:29.773Z,34.90
2018-04-23T09:47:58.025Z,34.50
2018-04-23T09:53:02.260Z,34.60
2018-04-23T09:55:31.267Z,35.70
2018-04-23T09:57:59.501Z,35.70
2018-04-23T10:00:31.723Z,35.50
2018-04-23T10:03:14.843Z,35.60
2018-04-23T10:05:43.094Z,37.20
2018-04-23T10:08:12.112Z,32.30
2018-04-23T10:10:40.338Z,32.30
2018-04-23T10:13:08.581Z,31.50
2018-04-23T10:15:36.858Z,31.00
2018-04-23T10:18:05.102Z,32.20
2018-04-23T10:20:33.389Z,31.90
2018-04-23T10:23:01.634Z,33.70
2018-04-23T10:25:30.653Z,35.50
2018-04-23T10:27:58.886Z,35.40
2018-04-23T10:30:27.265Z,35.70
2018-04-23T10:32:55.502Z,36.00
2018-04-23T10:35:23.741Z,35.70
2018-04-23T10:37:52.784Z,34.90
2018-04-23T10:40:21.139Z,34.90
2018-04-23T10:42:49.414Z,34.60
2018-04-23T10:45:17.662Z,34.10
2018-04-23T10:47:46.679Z,33.50
2018-04-23T10:50:14.931Z,33.40
2018-04-23T10:52:43.927Z,33.80
2018-04-23T10:55:13.129Z,35.40
2018-04-23T10:57:41.360Z,35.40
2018-04-23T11:00:09.603Z,36.60
2018-04-23T11:02:37.849Z,34.80
2018-04-23T11:05:06.857Z,34.30
2018-04-23T11:07:35.106Z,34.30
2018-04-23T11:10:04.122Z,34.00
2018-04-23T11:12:32.362Z,34.00
2018-04-23T11:15:00.624Z,34.40
2018-04-23T11:17:29.045Z,34.40
2018-04-23T11:19:57.299Z,35.20
2018-04-23T11:22:25.530Z,35.20
2018-04-23T11:24:53.801Z,34.70
2018-04-23T11:27:22.038Z,34.60
2018-04-23T11:29:51.041Z,33.70
2018-04-23T11:32:19.302Z,33.60
2018-04-23T11:34:48.318Z,32.80
2018-04-23T11:37:16.554Z,32.70
2018-04-23T11:39:44.810Z,33.40
2018-04-23T11:42:13.104Z,33.60
2018-04-23T11:44:41.338Z,34.30
2018-04-23T11:47:09.591Z,34.50
2018-04-23T11:49:37.846Z,36.90
2018-04-23T11:52:06.852Z,34.70
2018-04-23T11:54:35.870Z,33.90
2018-04-23T11:57:04.108Z,33.80
2018-04-23T11:59:33.145Z,34.30
2018-04-23T12:02:01.402Z,34.30
2018-04-23T12:04:29.639Z,34.90
2018-04-23T12:06:58.274Z,35.70
2018-04-23T12:09:26.510Z,36.00
2018-04-23T12:11:55.522Z,36.60
2018-04-23T12:14:23.774Z,36.50
2018-04-23T12:16:52.794Z,37.00
2018-04-23T12:19:21.054Z,37.10
2018-04-23T12:21:50.054Z,38.70
2018-04-23T12:24:18.303Z,38.70
2018-04-23T12:26:46.551Z,39.50
2018-04-23T12:29:14.800Z,40.70
2018-04-23T12:31:43.262Z,38.80
2018-04-23T12:34:12.266Z,39.20
2018-04-23T12:36:40.538Z,39.20
2018-04-23T12:39:08.785Z,38.80
2018-04-23T12:41:37.804Z,36.30
2018-04-23T12:44:06.278Z,36.20
2018-04-23T12:46:34.513Z,37.50
2018-04-23T12:49:02.751Z,36.10
2018-04-23T12:51:31.007Z,36.50
2018-04-23T12:53:59.250Z,36.40
2018-04-23T12:56:28.266Z,34.80
2018-04-23T12:58:57.275Z,34.00
2018-04-23T13:01:25.749Z,33.90
2018-04-23T13:03:53.993Z,35.10
2018-04-23T13:06:23.743Z,36.70
2018-04-23T13:08:52.014Z,36.70
2018-04-23T13:11:20.285Z,37.20
2018-04-23T13:13:49.290Z,36.90
2018-04-23T13:16:17.539Z,36.90
2018-04-23T13:18:45.876Z,37.60
2018-04-23T13:21:14.927Z,37.50
2018-04-23T13:23:43.173Z,37.50
2018-04-23T13:26:11.422Z,37.90
2018-04-23T13:28:39.654Z,37.20
2018-04-23T13:31:07.894Z,37.10
2018-04-23T13:33:36.924Z,36.70
2018-04-23T13:36:05.166Z,36.10
2018-04-23T13:38:33.422Z,37.80
2018-04-23T13:41:01.654Z,38.90
2018-04-23T13:43:29.906Z,39.50
2018-04-23T13:45:58.906Z,41.80
2018-04-23T13:48:27.928Z,42.40
2018-04-23T13:50:56.170Z,42.30
2018-04-23T13:53:25.174Z,43.60
2018-04-23T13:55:54.198Z,44.20
2018-04-23T13:58:22.446Z,44.10
2018-04-23T14:00:50.687Z,44.80
2018-04-23T14:03:18.921Z,45.30
2018-04-23T14:05:47.170Z,45.90
2018-04-23T14:08:15.414Z,46.40
2018-04-23T14:10:43.652Z,46.50
2018-04-23T14:13:11.894Z,46.90
2018-04-23T14:15:40.915Z,47.50
2018-04-23T14:18:09.141Z,47.50
2018-04-23T14:20:38.570Z,48.90
2018-04-23T14:23:06.820Z,48.70
2018-04-23T14:25:35.049Z,48.20
2018-04-23T14:28:03.318Z,49.40
2018-04-23T14:30:31.562Z,49.00
2018-04-23T14:35:35.352Z,49.00
2018-04-23T14:38:03.602Z,49.30
2018-04-23T14:40:31.838Z,49.80
2018-04-23T14:43:00.864Z,50.00
2018-04-23T14:45:29.110Z,50.00
2018-04-23T14:47:58.113Z,49.00
2018-04-23T14:50:26.372Z,49.00
2018-04-23T14:52:55.519Z,47.20
2018-04-23T14:55:23.766Z,47.20
2018-04-23T14:57:51.997Z,48.50
2018-04-23T15:00:20.302Z,47.70
2018-04-23T15:02:48.547Z,48.10
2018-04-23T15:05:16.793Z,48.70
2018-04-23T15:07:45.030Z,49.00
2018-04-23T15:10:13.274Z,49.90
2018-04-23T15:12:41.542Z,50.00
2018-04-23T15:15:10.058Z,49.80
2018-04-23T15:17:39.157Z,50.70
2018-04-23T15:20:08.167Z,50.30
2018-04-23T15:22:36.412Z,50.30
2018-04-23T15:25:05.410Z,49.20
2018-04-23T15:27:34.445Z,49.80
2018-04-23T15:30:02.696Z,49.70
2018-04-23T15:32:30.929Z,50.30
2018-04-23T15:34:59.162Z,50.10
2018-04-23T15:37:27.409Z,50.00
2018-04-23T15:39:56.411Z,50.90
2018-04-23T15:42:24.654Z,50.80
2018-04-23T15:44:53.670Z,50.70
2018-04-23T15:47:21.906Z,50.80
2018-04-23T15:49:50.159Z,50.90
2018-04-23T15:52:18.398Z,51.40
2018-04-23T15:54:47.505Z,51.80
2018-04-23T15:57:15.796Z,51.80
2018-04-23T15:59:44.022Z,52.20
2018-04-23T16:02:12.291Z,52.40
2018-04-23T16:04:40.526Z,52.90
2018-04-23T16:07:08.774Z,53.20
2018-04-23T16:09:37.018Z,53.30
2018-04-23T16:12:05.251Z,53.50
2018-04-23T16:14:33.510Z,53.50
2018-04-23T16:17:01.774Z,53.70
2018-04-23T16:19:30.804Z,54.00
2018-04-23T16:21:59.049Z,54.00
2018-04-23T16:24:27.297Z,53.50
2018-04-23T16:26:56.307Z,53.80
2018-04-23T16:29:25.426Z,52.90
2018-04-23T16:31:53.663Z,52.90
2018-04-23T16:34:21.893Z,52.70
2018-04-23T16:36:50.146Z,52.80
2018-04-23T16:39:18.393Z,52.80
2018-04-23T16:41:47.402Z,52.70
2018-04-23T16:44:15.662Z,52.60
2018-04-23T16:46:44.682Z,52.50
2018-04-23T16:49:12.922Z,52.40
2018-04-23T16:51:41.175Z,51.90
2018-04-23T16:54:09.409Z,52.30
2018-04-23T16:56:37.661Z,52.40
2018-04-23T16:59:06.665Z,53.40
2018-04-23T17:01:35.246Z,53.20
2018-04-23T17:04:03.486Z,54.20
2018-04-23T17:06:31.731Z,54.30
2018-04-23T17:08:59.980Z,54.90
2018-04-23T17:11:28.249Z,55.10
2018-04-23T17:13:56.521Z,55.10
2018-04-23T17:16:25.534Z,54.90
2018-04-23T17:18:54.548Z,54.90
2018-04-23T17:21:22.806Z,54.80
2018-04-23T17:23:51.186Z,54.80
2018-04-23T17:26:19.774Z,55.50
2018-04-23T17:28:48.043Z,55.10
2018-04-23T17:31:16.297Z,54.50
2018-04-23T17:33:45.996Z,55.20
2018-04-23T17:36:14.298Z,55.20
2018-04-23T17:38:43.568Z,55.40
2018-04-23T17:41:12.790Z,55.50
2018-04-23T17:43:42.429Z,55.50
2018-04-23T17:46:10.898Z,55.90
2018-04-23T17:48:39.465Z,55.30
2018-04-23T17:51:08.169Z,54.60
2018-04-23T17:53:37.041Z,54.60
2018-04-23T17:56:05.366Z,55.00
2018-04-23T17:58:33.680Z,54.60
2018-04-23T18:01:02.840Z,55.00
2018-04-23T18:03:31.073Z,54.90
2018-04-23T18:05:59.450Z,55.10
2018-04-23T18:08:27.877Z,55.10
2018-04-23T18:10:57.079Z,55.30
2018-04-23T18:13:25.522Z,55.80
2018-04-23T18:15:54.250Z,55.30
2018-04-23T18:18:23.430Z,55.80
2018-04-23T18:20:51.669Z,55.80
2018-04-23T18:23:19.923Z,56.00
2018-04-23T18:25:48.930Z,56.10
2018-04-23T18:28:17.176Z,56.10
2018-04-23T18:30:45.426Z,56.10
2018-04-23T18:33:13.676Z,56.00
2018-04-23T18:35:41.912Z,56.20
2018-04-23T18:38:10.924Z,56.40
2018-04-23T18:40:39.174Z,56.40
2018-04-23T18:43:08.210Z,56.70
2018-04-23T18:45:36.472Z,56.60
2018-04-23T18:48:05.477Z,56.70
2018-04-23T18:50:33.752Z,56.70
2018-04-23T18:53:01.978Z,57.00
2018-04-23T18:55:30.242Z,57.20
2018-04-23T18:57:58.482Z,57.40
2018-04-23T19:00:26.737Z,56.70
2018-04-23T19:02:54.987Z,56.70
2018-04-23T19:05:24.006Z,57.40
2018-04-23T19:07:52.262Z,56.80
2018-04-23T19:10:21.274Z,57.40
2018-04-23T19:12:49.549Z,58.00
2018-04-23T19:15:17.778Z,57.40
2018-04-23T19:17:46.042Z,57.60
2018-04-23T19:20:14.308Z,57.90
2018-04-23T19:22:42.534Z,58.10
2018-04-23T19:25:11.618Z,58.50
2018-04-23T19:27:40.113Z,58.50
2018-04-23T19:30:09.118Z,59.00
2018-04-23T19:32:37.349Z,59.00
2018-04-23T19:35:05.606Z,59.20
2018-04-23T19:37:33.850Z,59.20
2018-04-23T19:40:02.098Z,59.50
2018-04-23T19:42:30.494Z,59.60
2018-04-23T19:44:58.766Z,60.00
2018-04-23T19:47:27.770Z,60.00
2018-04-23T19:49:56.006Z,60.00
2018-04-23T19:52:24.618Z,60.20
2018-04-23T19:54:53.622Z,60.00
2018-04-23T19:57:21.863Z,60.00
2018-04-23T19:59:50.102Z,60.20
2018-04-23T20:02:18.367Z,60.40
2018-04-23T20:04:46.630Z,60.70
2018-04-23T20:07:14.866Z,60.70
2018-04-23T20:09:43.479Z,60.80
2018-04-23T20:12:12.482Z,61.20
2018-04-23T20:14:40.779Z,61.10
2018-04-23T20:17:09.045Z,61.00
2018-04-23T20:19:37.298Z,61.00
2018-04-23T20:22:05.538Z,60.80
2018-04-23T20:24:33.817Z,60.80
2018-04-23T20:27:02.062Z,60.40
2018-04-23T20:29:30.327Z,60.60
2018-04-23T20:31:58.579Z,60.60
2018-04-23T20:34:26.823Z,61.10
2018-04-23T20:36:55.431Z,61.20
2018-04-23T20:39:24.446Z,62.20
2018-04-23T20:41:52.864Z,62.20
2018-04-23T20:44:21.370Z,62.60
2018-04-23T20:46:49.543Z,62.80
2018-04-23T20:49:17.787Z,63.70
2018-04-23T20:51:46.037Z,64.70
2018-04-23T20:54:14.704Z,64.40
2018-04-23T20:56:42.915Z,64.10
2018-04-23T20:59:11.147Z,64.80
2018-04-23T21:01:40.158Z,65.70
2018-04-23T21:04:08.397Z,65.70
2018-04-23T21:06:37.462Z,65.20
2018-04-23T21:09:06.498Z,65.00
2018-04-23T21:11:35.509Z,65.90
2018-04-23T21:14:03.754Z,65.70
2018-04-23T21:16:32.892Z,65.40
2018-04-23T21:19:01.130Z,64.60
2018-04-23T21:21:30.130Z,64.10
2018-04-23T21:23:59.161Z,64.40
2018-04-23T21:26:27.409Z,64.30
2018-04-23T21:28:56.398Z,65.50
2018-04-23T21:31:24.649Z,65.50
2018-04-23T21:33:52.886Z,66.20
2018-04-23T21:36:21.127Z,66.50
2018-04-23T21:38:49.377Z,66.80
2018-04-23T21:41:18.388Z,68.80
2018-04-23T21:43:47.399Z,67.80
2018-04-23T21:46:15.636Z,67.70
2018-04-23T21:48:43.874Z,68.30
2018-04-23T21:51:12.208Z,67.80
2018-04-23T21:53:41.211Z,68.10
2018-04-23T21:56:09.502Z,68.10
2018-04-23T21:58:37.755Z,68.40
2018-04-23T22:01:06.747Z,70.00
2018-04-23T22:03:35.812Z,71.10
2018-04-23T22:06:04.022Z,71.00
2018-04-23T22:08:33.018Z,72.80
2018-04-23T22:11:01.272Z,72.80
2018-04-23T22:13:29.522Z,73.30
2018-04-23T22:15:57.763Z,72.40
2018-04-23T22:18:26.003Z,73.20
2018-04-23T22:20:55.009Z,74.10
2018-04-23T22:23:24.026Z,74.80
2018-04-23T22:25:52.259Z,74.80
2018-04-23T22:28:21.264Z,75.80
2018-04-23T22:30:50.275Z,75.70
2018-04-23T22:33:18.563Z,75.70
2018-04-23T22:35:46.802Z,76.20
2018-04-23T22:38:15.803Z,76.30
2018-04-23T22:40:44.809Z,76.40
2018-04-23T22:43:13.053Z,76.30
2018-04-23T22:45:41.286Z,76.20
2018-04-23T22:48:09.532Z,75.80
2018-04-23T22:50:37.774Z,75.60
2018-04-23T22:53:06.384Z,75.60
2018-04-23T22:55:35.483Z,75.10
2018-04-23T22:58:04.584Z,75.10
2018-04-23T23:00:32.834Z,75.00
2018-04-23T23:03:01.846Z,75.90
2018-04-23T23:05:30.856Z,77.00
2018-04-23T23:07:59.099Z,76.30
2018-04-23T23:10:28.110Z,76.70
2018-04-23T23:12:56.358Z,76.50
2018-04-23T23:15:25.362Z,76.80
2018-04-23T23:17:54.386Z,76.40
2018-04-23T23:20:22.622Z,76.20
2018-04-23T23:22:50.869Z,76.80
2018-04-23T23:25:19.100Z,77.00
2018-04-23T23:27:47.346Z,77.20
2018-04-23T23:30:15.590Z,77.80
2018-04-23T23:32:43.837Z,77.90
2018-04-23T23:35:12.074Z,77.90
2018-04-23T23:37:40.318Z,78.00
2018-04-23T23:40:08.560Z,78.20
2018-04-23T23:42:36.814Z,77.80
2018-04-23T23:45:05.826Z,77.90
2018-04-23T23:47:34.062Z,77.80
2018-04-23T23:50:02.302Z,77.70
2018-04-23T23:52:30.531Z,77.70
2018-04-23T23:54:59.841Z,78.40
2018-04-23T23:57:28.846Z,78.70
2018-04-23T23:59:57.083Z,78.70
